Vonachen Knolls, Illinois
Current Conditions -  °F | °C
As of 9:55 PM on Saturday 20 Dec 2014 (Local Time) from KC75 Reporting Station
Overcast Overcast  
Wind Chill: 28°   Ceiling: 3600
Heat Index: 32°   Visibility: 7mi
Dew Point: 28°   Wind: 5mph
Humidity: 85%   Direction: 160°SSE
Pressure: 30.23"   Gusts: NA
Location:  40.915°N, 89.5303°W
Report Text: KC75 210355Z AUTO 16004KT 7SM OVC036 00/M02 A3023 RMK AO2 T00011022
Loading
Personal Weather Stations






























Interactive Weather Map New forecast layout! Learn more

10-Day Weather Forecast

Advertisements
Track Severe Weather on mobile